Time;durP1;ratioP1;P1;durP2;ratioP2;P2;SDS_P1;SDS_P2;PMS_P1;PMS_P2;Temp;Humidity;BMP_temperature;BMP_pressure;BME280_temperature;BME280_humidity;BME280_pressure;Samples;Min_cycle;Max_cycle;Signal;HPM_P1;HPM_P2
2022/05/06 00:02:18;;;;;;;30.30;14.43;;;;;;;;;;5053026;28;20182;-65
2022/05/06 00:04:44;;;;;;;27.57;14.40;;;;;;;;;;5052903;28;20195;-65
2022/05/06 00:07:13;;;;;;;27.60;13.57;;;;;;;;;;5034983;28;20608;-65
2022/05/06 00:09:40;;;;;;;28.53;13.33;;;;;;;;;;5052847;28;20217;-65
2022/05/06 00:12:07;;;;;;;23.03;13.10;;;;;;;;;;5052901;28;20208;-65
2022/05/06 00:14:34;;;;;;;23.03;12.87;;;;;;;;;;5052794;28;20203;-65
2022/05/06 00:17:00;;;;;;;20.47;11.40;;;;;;;;;;5052887;28;20281;-65
2022/05/06 00:19:26;;;;;;;15.77;9.67;;;;;;;;;;5053339;28;20650;-65
2022/05/06 00:21:52;;;;;;;17.57;8.87;;;;;;;;;;5052796;28;20674;-65
2022/05/06 00:24:18;;;;;;;13.40;8.77;;;;;;;;;;5052955;28;20693;-65
2022/05/06 00:26:44;;;;;;;12.07;8.20;;;;;;;;;;5052848;28;20183;-65
2022/05/06 00:29:10;;;;;;;11.23;7.63;;;;;;;;;;5052889;28;20259;-66
2022/05/06 00:31:36;;;;;;;12.40;8.07;;;;;;;;;;5053718;28;20221;-66
2022/05/06 00:34:02;;;;;;;12.37;8.20;;;;;;;;;;5035759;28;20201;-65
2022/05/06 00:36:28;;;;;;;14.10;8.80;;;;;;;;;;5034971;28;20178;-65
2022/05/06 00:38:54;;;;;;;11.37;7.30;;;;;;;;;;5052735;28;20182;-65
2022/05/06 00:41:20;;;;;;;9.03;6.90;;;;;;;;;;5052583;28;20185;-66
2022/05/06 00:43:46;;;;;;;7.73;6.47;;;;;;;;;;5035310;28;20654;-65
2022/05/06 00:46:15;;;;;;;11.43;7.17;;;;;;;;;;5038455;28;20185;-65
2022/05/06 00:48:42;;;;;;;8.40;6.27;;;;;;;;;;5038485;28;20244;-65
2022/05/06 00:51:09;;;;;;;8.67;6.43;;;;;;;;;;5056195;28;20178;-65
2022/05/06 00:53:43;;;;;;;8.17;6.83;;;;;;;;;;5040217;28;20174;-66
2022/05/06 00:56:09;;;;;;;7.73;6.50;;;;;;;;;;5015269;28;20254;-65
2022/05/06 00:58:35;;;;;;;7.70;6.70;;;;;;;;;;5015334;28;20598;-65
2022/05/06 01:01:02;;;;;;;8.43;6.70;;;;;;;;;;5015071;28;20188;-65
2022/05/06 01:03:28;;;;;;;11.33;7.07;;;;;;;;;;5016257;28;20176;-65
2022/05/06 01:05:55;;;;;;;9.00;6.43;;;;;;;;;;5016177;28;20196;-65
2022/05/06 01:08:21;;;;;;;8.60;6.53;;;;;;;;;;5014951;28;20183;-64
2022/05/06 01:10:47;;;;;;;8.53;6.13;;;;;;;;;;5016281;28;20557;-65
2022/05/06 01:13:13;;;;;;;6.73;5.90;;;;;;;;;;5014901;28;20257;-65
2022/05/06 01:15:39;;;;;;;9.90;6.73;;;;;;;;;;5015794;28;20208;-65
2022/05/06 01:18:05;;;;;;;8.33;6.63;;;;;;;;;;5016625;28;20184;-64
2022/05/06 01:20:34;;;;;;;10.30;6.87;;;;;;;;;;5016069;28;20188;-65
2022/05/06 01:23:00;;;;;;;9.10;6.67;;;;;;;;;;5015939;28;20184;-65
2022/05/06 01:25:27;;;;;;;10.97;7.63;;;;;;;;;;5015876;28;20199;-64
2022/05/06 01:28:01;;;;;;;10.67;7.33;;;;;;;;;;5015933;28;20206;-65
2022/05/06 01:30:36;;;;;;;10.40;7.50;;;;;;;;;;5014627;28;20180;-65
2022/05/06 01:33:03;;;;;;;8.77;6.13;;;;;;;;;;5015712;28;20243;-65
2022/05/06 01:35:30;;;;;;;9.20;6.83;;;;;;;;;;5014425;28;20286;-64
2022/05/06 01:37:59;;;;;;;7.87;6.40;;;;;;;;;;5014472;28;20279;-65
2022/05/06 01:40:25;;;;;;;9.17;7.20;;;;;;;;;;5014332;28;20184;-65
2022/05/06 01:42:54;;;;;;;11.50;7.87;;;;;;;;;;5014386;28;20188;-63
2022/05/06 01:45:22;;;;;;;9.30;7.20;;;;;;;;;;5015683;28;20614;-65
2022/05/06 01:47:50;;;;;;;10.40;8.03;;;;;;;;;;5016213;28;20207;-65
2022/05/06 01:50:16;;;;;;;14.50;8.20;;;;;;;;;;5014239;28;20270;-65
2022/05/06 01:52:43;;;;;;;10.70;8.00;;;;;;;;;;5015325;28;20211;-64
2022/05/06 01:55:12;;;;;;;11.33;7.93;;;;;;;;;;5015295;28;20301;-65
2022/05/06 01:57:38;;;;;;;11.73;8.73;;;;;;;;;;5014134;28;20195;-65
2022/05/06 02:00:05;;;;;;;11.03;8.03;;;;;;;;;;5015378;28;20176;-65
2022/05/06 02:02:31;;;;;;;12.20;8.13;;;;;;;;;;5015294;28;20258;-65
2022/05/06 02:07:41;;;;;;;15.43;10.10;;;;;;;;;;5015057;28;20174;-65
2022/05/06 02:10:08;;;;;;;11.97;8.77;;;;;;;;;;5015298;28;20180;-65
2022/05/06 02:12:33;;;;;;;13.87;9.70;;;;;;;;;;5014838;28;20203;-65
2022/05/06 02:15:00;;;;;;;13.80;9.00;;;;;;;;;;5014797;28;20199;-65
2022/05/06 02:17:26;;;;;;;16.53;9.27;;;;;;;;;;5015386;28;20545;-64
2022/05/06 02:19:52;;;;;;;13.13;8.83;;;;;;;;;;5015374;28;20184;-64
2022/05/06 02:22:18;;;;;;;15.17;10.03;;;;;;;;;;5014886;28;20647;-65
2022/05/06 02:24:43;;;;;;;15.93;9.40;;;;;;;;;;5014889;28;20679;-65
2022/05/06 02:27:13;;;;;;;13.23;9.67;;;;;;;;;;5015027;28;20234;-64
2022/05/06 02:33:12;;;;;;;15.67;10.13;;;;;;;;;;5014728;28;20230;-65
2022/05/06 02:35:10;;;;;;;11.77;9.17;;;;;;;;;;5014564;28;20238;-64
2022/05/06 02:37:36;;;;;;;14.13;10.23;;;;;;;;;;5014579;28;20176;-64
2022/05/06 02:40:03;;;;;;;11.63;9.03;;;;;;;;;;5014612;28;20216;-65
2022/05/06 02:42:29;;;;;;;13.60;10.07;;;;;;;;;;5013319;28;20207;-64
2022/05/06 02:44:55;;;;;;;15.80;10.63;;;;;;;;;;5013136;28;20242;-64
2022/05/06 02:47:21;;;;;;;14.97;9.97;;;;;;;;;;5014693;28;20180;-64
2022/05/06 02:49:46;;;;;;;18.53;10.57;;;;;;;;;;5014586;28;20172;-64
2022/05/06 02:52:12;;;;;;;14.73;10.40;;;;;;;;;;5014641;28;20207;-66
2022/05/06 02:54:38;;;;;;;15.07;9.93;;;;;;;;;;5014209;28;20261;-65
2022/05/06 02:57:05;;;;;;;17.73;11.17;;;;;;;;;;5014624;28;20180;-65
2022/05/06 02:59:31;;;;;;;17.20;11.03;;;;;;;;;;5014298;28;20283;-65
2022/05/06 03:01:57;;;;;;;17.00;10.13;;;;;;;;;;5014564;28;20183;-65
2022/05/06 03:04:23;;;;;;;19.40;11.13;;;;;;;;;;5012888;28;20663;-65
2022/05/06 03:06:49;;;;;;;19.07;11.47;;;;;;;;;;5013629;28;20231;-65
2022/05/06 03:09:15;;;;;;;14.37;10.87;;;;;;;;;;5014207;28;20580;-65
2022/05/06 03:11:41;;;;;;;16.37;10.73;;;;;;;;;;5014331;28;20210;-65
2022/05/06 03:14:07;;;;;;;16.60;11.83;;;;;;;;;;5013900;28;20246;-65
2022/05/06 03:16:33;;;;;;;16.77;11.20;;;;;;;;;;5013916;28;20187;-65
2022/05/06 03:19:00;;;;;;;18.10;11.43;;;;;;;;;;5013827;28;20258;-66
2022/05/06 03:21:26;;;;;;;18.73;11.20;;;;;;;;;;5013926;28;20179;-65
2022/05/06 03:23:52;;;;;;;20.43;12.73;;;;;;;;;;5013773;28;20188;-65
2022/05/06 03:26:18;;;;;;;16.77;11.53;;;;;;;;;;5014183;28;20205;-65
2022/05/06 03:28:44;;;;;;;19.97;12.37;;;;;;;;;;5012589;28;20733;-64
2022/05/06 03:31:13;;;;;;;17.63;12.43;;;;;;;;;;5013735;28;20259;-65
2022/05/06 03:33:41;;;;;;;19.97;12.80;;;;;;;;;;5013575;28;20658;-65
2022/05/06 03:36:09;;;;;;;20.87;12.87;;;;;;;;;;5012467;28;20176;-65
2022/05/06 03:38:35;;;;;;;20.63;12.80;;;;;;;;;;5014023;28;20555;-64
2022/05/06 03:41:01;;;;;;;20.43;12.87;;;;;;;;;;5014234;28;20176;-66
2022/05/06 03:43:27;;;;;;;21.53;11.93;;;;;;;;;;5013661;28;20684;-65
2022/05/06 03:45:53;;;;;;;20.43;13.37;;;;;;;;;;5013503;28;20219;-65
2022/05/06 03:48:24;;;;;;;21.50;13.23;;;;;;;;;;5013769;28;20257;-64
2022/05/06 03:53:35;;;;;;;18.83;11.57;;;;;;;;;;5013949;28;20175;-65
2022/05/06 03:56:01;;;;;;;20.47;12.77;;;;;;;;;;5013584;28;20200;-64
2022/05/06 03:58:27;;;;;;;18.67;12.37;;;;;;;;;;5013769;28;20674;-65
2022/05/06 04:00:53;;;;;;;26.90;14.70;;;;;;;;;;5013585;28;20258;-65
2022/05/06 04:03:19;;;;;;;29.67;15.70;;;;;;;;;;5013597;28;20202;-65
2022/05/06 04:05:45;;;;;;;28.27;15.10;;;;;;;;;;5013669;28;20191;-65
2022/05/06 04:08:11;;;;;;;27.90;15.53;;;;;;;;;;5012062;28;20241;-65
2022/05/06 04:10:37;;;;;;;27.13;14.93;;;;;;;;;;5012055;28;20604;-65
2022/05/06 04:13:03;;;;;;;24.40;14.30;;;;;;;;;;5013258;28;20208;-65
2022/05/06 04:15:29;;;;;;;26.10;14.97;;;;;;;;;;5013428;28;20635;-64
2022/05/06 04:17:55;;;;;;;23.43;13.00;;;;;;;;;;5012033;28;20199;-65
2022/05/06 04:25:50;;;;;;;19.23;12.47;;;;;;;;;;5017510;28;20218;-64
2022/05/06 04:28:16;;;;;;;19.57;12.70;;;;;;;;;;5017051;28;20176;-64
2022/05/06 04:30:42;;;;;;;21.03;12.77;;;;;;;;;;5017229;28;20245;-64
2022/05/06 04:33:08;;;;;;;18.70;12.37;;;;;;;;;;5017445;28;20207;-67
2022/05/06 04:35:34;;;;;;;19.90;12.63;;;;;;;;;;5017653;28;20259;-64
2022/05/06 04:38:00;;;;;;;16.33;12.17;;;;;;;;;;5015835;28;20183;-64
2022/05/06 04:40:27;;;;;;;19.13;11.03;;;;;;;;;;5016948;28;20184;-65
2022/05/06 04:42:53;;;;;;;17.60;12.33;;;;;;;;;;5017511;28;20191;-64
2022/05/06 04:45:19;;;;;;;21.57;12.63;;;;;;;;;;5017029;28;20196;-64
2022/05/06 04:47:44;;;;;;;17.67;11.43;;;;;;;;;;5016984;28;20763;-64
2022/05/06 04:50:10;;;;;;;22.97;12.00;;;;;;;;;;5016835;28;20701;-65
2022/05/06 04:52:36;;;;;;;16.90;11.00;;;;;;;;;;5015416;28;20216;-65
2022/05/06 04:55:02;;;;;;;17.40;11.40;;;;;;;;;;5015281;28;20219;-65
2022/05/06 04:57:28;;;;;;;17.30;12.03;;;;;;;;;;5017222;28;20613;-64
2022/05/06 04:59:55;;;;;;;16.63;11.17;;;;;;;;;;5016682;28;20279;-65
2022/05/06 05:02:21;;;;;;;19.70;11.97;;;;;;;;;;5015371;28;20184;-63
2022/05/06 05:04:48;;;;;;;16.30;11.63;;;;;;;;;;5015066;28;20204;-65
2022/05/06 05:07:14;;;;;;;20.17;11.83;;;;;;;;;;5015302;28;20186;-64
2022/05/06 05:09:40;;;;;;;20.50;12.60;;;;;;;;;;5016445;28;20266;-64
2022/05/06 05:12:07;;;;;;;18.33;12.10;;;;;;;;;;5016448;28;20200;-65
2022/05/06 05:14:35;;;;;;;17.73;12.03;;;;;;;;;;5014905;28;20199;-65
2022/05/06 05:17:01;;;;;;;16.47;11.17;;;;;;;;;;5014943;28;20556;-65
2022/05/06 05:19:27;;;;;;;17.97;11.30;;;;;;;;;;5016473;28;20541;-64
2022/05/06 05:21:53;;;;;;;18.33;12.50;;;;;;;;;;5015067;28;20187;-65
2022/05/06 05:24:19;;;;;;;21.47;13.07;;;;;;;;;;5016329;28;20211;-62
2022/05/06 05:26:45;;;;;;;19.30;11.50;;;;;;;;;;5015854;28;20184;-64
2022/05/06 05:29:11;;;;;;;16.53;10.80;;;;;;;;;;5015664;28;20262;-64
2022/05/06 05:31:37;;;;;;;15.03;10.10;;;;;;;;;;5015736;28;20642;-64
2022/05/06 05:34:03;;;;;;;12.97;9.50;;;;;;;;;;5016352;28;20680;-64
2022/05/06 05:36:29;;;;;;;12.90;8.00;;;;;;;;;;5015838;28;20199;-64
2022/05/06 05:38:55;;;;;;;11.63;8.03;;;;;;;;;;5015705;28;20180;-64
2022/05/06 05:41:21;;;;;;;11.73;8.70;;;;;;;;;;5015620;28;20176;-64
2022/05/06 05:49:16;;;;;;;13.10;8.77;;;;;;;;;;5015742;28;20167;-64
2022/05/06 05:51:42;;;;;;;13.77;9.40;;;;;;;;;;5014334;28;20215;-64
2022/05/06 05:54:08;;;;;;;11.50;8.80;;;;;;;;;;5014229;28;20307;-63
2022/05/06 05:56:34;;;;;;;14.17;9.40;;;;;;;;;;5014719;28;20279;-64
2022/05/06 05:59:00;;;;;;;14.60;10.43;;;;;;;;;;5015660;28;20253;-64
2022/05/06 06:01:25;;;;;;;11.97;8.80;;;;;;;;;;5015425;28;20179;-64
2022/05/06 06:03:51;;;;;;;12.10;9.10;;;;;;;;;;5015489;28;20555;-63
2022/05/06 06:06:18;;;;;;;12.77;9.33;;;;;;;;;;5014138;28;20671;-64
2022/05/06 06:08:44;;;;;;;14.67;8.87;;;;;;;;;;5014057;28;20237;-64
2022/05/06 06:11:10;;;;;;;12.87;8.97;;;;;;;;;;5015156;28;20180;-64
2022/05/06 06:13:35;;;;;;;12.27;9.07;;;;;;;;;;5015011;28;20208;-63
2022/05/06 06:16:01;;;;;;;13.10;9.53;;;;;;;;;;5013648;28;20184;-63
2022/05/06 06:18:27;;;;;;;14.97;10.30;;;;;;;;;;5015215;28;20180;-64
2022/05/06 06:20:55;;;;;;;15.90;10.87;;;;;;;;;;5014938;28;20242;-64
2022/05/06 06:23:21;;;;;;;16.00;10.87;;;;;;;;;;5014785;28;20306;-64
2022/05/06 06:25:47;;;;;;;17.40;12.10;;;;;;;;;;5013429;28;20244;-64
2022/05/06 06:28:13;;;;;;;17.13;12.23;;;;;;;;;;5014927;28;20211;-64
2022/05/06 06:30:38;;;;;;;14.60;11.80;;;;;;;;;;5013398;28;20179;-64
2022/05/06 06:33:04;;;;;;;19.57;12.73;;;;;;;;;;5014809;28;20210;-64
2022/05/06 06:35:30;;;;;;;18.57;12.57;;;;;;;;;;5014748;28;20722;-63
2022/05/06 06:37:56;;;;;;;19.93;14.03;;;;;;;;;;5014838;28;20258;-64
2022/05/06 06:40:22;;;;;;;21.13;13.07;;;;;;;;;;5014594;28;20172;-63
2022/05/06 06:42:48;;;;;;;20.17;13.23;;;;;;;;;;5013821;28;20270;-64
2022/05/06 06:45:14;;;;;;;17.17;12.47;;;;;;;;;;5014281;28;20207;-63
2022/05/06 06:47:41;;;;;;;24.93;14.03;;;;;;;;;;5013273;28;20188;-64
2022/05/06 06:50:07;;;;;;;17.80;12.93;;;;;;;;;;5013138;28;20186;-64
2022/05/06 06:52:33;;;;;;;20.80;12.80;;;;;;;;;;5014239;28;20271;-64
2022/05/06 06:54:59;;;;;;;18.83;12.63;;;;;;;;;;5012903;28;20219;-64
2022/05/06 06:57:26;;;;;;;19.13;13.27;;;;;;;;;;5013318;28;20212;-64
2022/05/06 06:59:52;;;;;;;19.67;12.23;;;;;;;;;;5014490;28;20171;-64
2022/05/06 07:02:18;;;;;;;16.97;12.33;;;;;;;;;;5012912;28;20245;-64
2022/05/06 07:04:44;;;;;;;20.80;13.10;;;;;;;;;;5014511;28;20672;-63
2022/05/06 07:12:39;;;;;;;19.20;12.20;;;;;;;;;;5014309;28;20687;-64
2022/05/06 07:15:05;;;;;;;19.83;13.00;;;;;;;;;;5014052;28;20668;-64
2022/05/06 07:17:31;;;;;;;19.47;13.13;;;;;;;;;;5014222;28;20176;-64
2022/05/06 07:19:57;;;;;;;20.80;13.77;;;;;;;;;;5012946;28;20179;-64
2022/05/06 07:22:23;;;;;;;21.67;13.87;;;;;;;;;;5014468;28;20290;-63
2022/05/06 07:24:49;;;;;;;18.53;12.77;;;;;;;;;;5013851;28;20203;-63
2022/05/06 07:27:17;;;;;;;19.20;12.83;;;;;;;;;;5014665;28;20555;-64
2022/05/06 07:29:43;;;;;;;19.40;13.20;;;;;;;;;;5012700;28;20179;-64
2022/05/06 07:32:09;;;;;;;20.03;13.73;;;;;;;;;;5014061;28;20203;-63
2022/05/06 07:34:36;;;;;;;22.70;14.20;;;;;;;;;;5012629;28;20196;-64
2022/05/06 07:37:02;;;;;;;23.67;13.80;;;;;;;;;;5014259;28;20553;-63
2022/05/06 07:39:28;;;;;;;18.80;13.47;;;;;;;;;;5012668;28;20602;-63
2022/05/06 07:41:54;;;;;;;19.73;13.47;;;;;;;;;;5012708;28;20681;-63
2022/05/06 07:44:20;;;;;;;19.03;14.33;;;;;;;;;;5013727;28;20200;-64
2022/05/06 07:46:46;;;;;;;22.70;14.67;;;;;;;;;;5013821;28;20179;-64
2022/05/06 07:49:12;;;;;;;20.57;14.10;;;;;;;;;;5014045;28;20184;-64
2022/05/06 07:51:38;;;;;;;20.70;13.90;;;;;;;;;;5013838;28;20261;-64
2022/05/06 07:54:04;;;;;;;18.90;13.23;;;;;;;;;;5013266;28;20596;-64
2022/05/06 07:56:30;;;;;;;20.77;13.63;;;;;;;;;;5014036;28;20168;-64
2022/05/06 07:58:56;;;;;;;17.53;12.17;;;;;;;;;;5014029;28;20721;-64
2022/05/06 08:06:52;;;;;;;18.63;12.90;;;;;;;;;;5013984;28;20194;-64
2022/05/06 08:09:18;;;;;;;23.67;13.50;;;;;;;;;;5013789;28;20188;-64
2022/05/06 08:11:46;;;;;;;20.23;12.60;;;;;;;;;;5013681;28;20214;-64
2022/05/06 08:14:12;;;;;;;21.93;12.67;;;;;;;;;;5013559;28;20200;-63
2022/05/06 08:16:38;;;;;;;17.43;12.63;;;;;;;;;;5013799;28;20703;-64
2022/05/06 08:19:04;;;;;;;19.30;12.57;;;;;;;;;;5014223;28;20259;-64
2022/05/06 08:21:30;;;;;;;23.77;13.60;;;;;;;;;;5013799;28;20172;-64
2022/05/06 08:23:56;;;;;;;20.07;13.57;;;;;;;;;;5013835;28;22177;-64
2022/05/06 08:26:22;;;;;;;19.50;12.47;;;;;;;;;;5014039;28;20674;-63
2022/05/06 08:28:48;;;;;;;21.33;13.73;;;;;;;;;;5013486;28;20698;-64
2022/05/06 08:31:14;;;;;;;19.07;12.90;;;;;;;;;;5012262;28;20206;-63
2022/05/06 08:33:40;;;;;;;16.23;12.37;;;;;;;;;;5013098;28;20216;-64
2022/05/06 08:36:06;;;;;;;18.70;13.07;;;;;;;;;;5013327;28;20579;-64
2022/05/06 08:38:32;;;;;;;19.47;13.00;;;;;;;;;;5013466;28;20187;-67
2022/05/06 08:41:00;;;;;;;16.53;12.07;;;;;;;;;;5013759;28;20180;-64
2022/05/06 08:43:26;;;;;;;18.30;14.13;;;;;;;;;;5013545;28;20188;-68
2022/05/06 08:51:26;;;;;;;18.70;13.13;;;;;;;;;;5013752;28;20223;-64
2022/05/06 08:53:54;;;;;;;18.67;13.70;;;;;;;;;;5011861;28;20190;-63
2022/05/06 08:56:20;;;;;;;17.17;12.97;;;;;;;;;;5013560;28;20168;-64
2022/05/06 08:58:46;;;;;;;20.67;14.30;;;;;;;;;;5013419;28;20559;-63
2022/05/06 09:01:12;;;;;;;20.63;14.97;;;;;;;;;;5013184;28;20675;-65
2022/05/06 09:03:39;;;;;;;19.03;13.53;;;;;;;;;;5011762;28;20192;-64
2022/05/06 09:06:05;;;;;;;18.40;13.80;;;;;;;;;;5016072;28;20655;-63
2022/05/06 09:08:36;;;;;;;18.63;12.80;;;;;;;;;;5016771;28;20176;-64
2022/05/06 09:11:04;;;;;;;18.97;13.53;;;;;;;;;;5016821;28;20273;-64
2022/05/06 09:13:30;;;;;;;24.37;14.40;;;;;;;;;;5016463;28;20207;-64
2022/05/06 09:19:19;;;;;;;20.30;14.30;;;;;;;;;;5016722;28;20171;-64
2022/05/06 09:22:04;;;;;;;18.70;13.93;;;;;;;;;;5016526;28;20237;-64
2022/05/06 09:24:31;;;;;;;21.43;14.00;;;;;;;;;;5016157;28;20223;-65
2022/05/06 09:27:04;;;;;;;20.03;13.93;;;;;;;;;;5016766;28;20182;-64
2022/05/06 09:29:46;;;;;;;22.17;13.33;;;;;;;;;;5016316;28;20262;-64
2022/05/06 09:32:12;;;;;;;20.93;13.87;;;;;;;;;;5014841;28;20203;-64
2022/05/06 09:34:38;;;;;;;17.43;12.50;;;;;;;;;;5014594;28;20199;-68
2022/05/06 09:37:04;;;;;;;17.60;12.93;;;;;;;;;;5016324;28;20207;-65
2022/05/06 09:39:30;;;;;;;15.30;11.93;;;;;;;;;;5015932;28;20207;-63
2022/05/06 09:42:04;;;;;;;20.13;13.40;;;;;;;;;;5016170;28;20183;-65
2022/05/06 09:44:31;;;;;;;20.33;13.03;;;;;;;;;;5016071;28;20195;-65
2022/05/06 09:47:15;;;;;;;19.37;13.27;;;;;;;;;;5042340;23;20294;-66
2022/05/06 09:49:42;;;;;;;18.13;12.83;;;;;;;;;;5017807;28;20186;-67
2022/05/06 09:52:14;;;;;;;18.57;12.47;;;;;;;;;;5035546;28;20282;-66
2022/05/06 09:54:41;;;;;;;20.13;13.00;;;;;;;;;;5018644;28;20187;-67
2022/05/06 09:57:08;;;;;;;22.07;14.87;;;;;;;;;;5035356;28;20191;-67
2022/05/06 09:59:35;;;;;;;20.93;15.33;;;;;;;;;;5035295;28;20175;-67
2022/05/06 10:02:01;;;;;;;20.90;14.07;;;;;;;;;;5035274;28;20236;-66
2022/05/06 10:04:28;;;;;;;21.97;14.93;;;;;;;;;;5019603;28;20187;-66
2022/05/06 10:06:58;;;;;;;22.47;15.23;;;;;;;;;;5038805;28;20258;-66
2022/05/06 10:09:25;;;;;;;22.40;15.23;;;;;;;;;;5037986;28;20539;-67
2022/05/06 10:11:51;;;;;;;21.13;16.20;;;;;;;;;;5036739;28;20195;-67
2022/05/06 10:14:18;;;;;;;24.93;15.73;;;;;;;;;;5019555;28;20217;-66
2022/05/06 10:16:44;;;;;;;20.37;14.73;;;;;;;;;;5017015;28;20218;-66
2022/05/06 10:19:39;;;;;;;22.17;15.87;;;;;;;;;;5017438;28;20230;-66
2022/05/06 10:22:05;;;;;;;21.10;15.57;;;;;;;;;;5000393;28;20193;-67
2022/05/06 10:24:41;;;;;;;20.33;15.03;;;;;;;;;;5017423;28;20599;-66
2022/05/06 10:32:25;;;;;;;20.80;14.90;;;;;;;;;;5016821;28;20207;-66
2022/05/06 10:33:14;;;;;;;19.57;15.03;;;;;;;;;;5034774;28;20222;-65
2022/05/06 10:35:44;;;;;;;19.97;13.90;;;;;;;;;;5016908;28;20571;-65
2022/05/06 10:38:20;;;;;;;20.63;14.87;;;;;;;;;;5016600;28;20207;-65
2022/05/06 10:40:52;;;;;;;21.23;14.37;;;;;;;;;;5016901;28;20539;-65
2022/05/06 10:43:49;;;;;;;18.97;13.07;;;;;;;;;;5034570;28;20171;-65
2022/05/06 10:46:34;;;;;;;18.27;13.57;;;;;;;;;;5016397;28;20179;-65
2022/05/06 10:49:18;;;;;;;16.57;12.23;;;;;;;;;;5016480;28;20275;-65
2022/05/06 10:51:44;;;;;;;18.30;13.57;;;;;;;;;;5016810;28;20264;-65
2022/05/06 10:54:14;;;;;;;20.70;14.53;;;;;;;;;;5016661;28;20270;-66
2022/05/06 10:56:44;;;;;;;17.37;13.80;;;;;;;;;;5034129;28;20794;-66
2022/05/06 10:59:10;;;;;;;19.27;15.07;;;;;;;;;;5016327;28;20183;-66
2022/05/06 11:01:36;;;;;;;19.57;15.77;;;;;;;;;;5034276;28;20254;-66
2022/05/06 11:04:02;;;;;;;23.47;16.73;;;;;;;;;;5033939;28;20229;-66
2022/05/06 11:06:28;;;;;;;21.03;16.20;;;;;;;;;;5033732;28;20175;-66
2022/05/06 11:08:54;;;;;;;24.17;18.00;;;;;;;;;;5034018;28;20258;-66
2022/05/06 11:11:20;;;;;;;25.27;17.57;;;;;;;;;;5016452;28;20254;-66
2022/05/06 11:13:51;;;;;;;27.20;18.03;;;;;;;;;;5033611;28;20333;-66
2022/05/06 11:16:17;;;;;;;22.50;16.67;;;;;;;;;;5016090;28;20194;-66
2022/05/06 11:18:43;;;;;;;23.80;17.03;;;;;;;;;;5033847;28;20258;-66
2022/05/06 11:21:22;;;;;;;20.27;14.60;;;;;;;;;;5033624;28;20171;-66
2022/05/06 11:23:48;;;;;;;21.03;15.43;;;;;;;;;;5015918;28;20179;-66
2022/05/06 11:26:23;;;;;;;19.77;15.53;;;;;;;;;;5033613;28;20690;-66
2022/05/06 11:29:02;;;;;;;21.90;16.57;;;;;;;;;;5033478;28;20190;-66
2022/05/06 11:31:28;;;;;;;23.50;16.97;;;;;;;;;;5015878;28;20236;-66
2022/05/06 11:33:56;;;;;;;23.97;17.10;;;;;;;;;;5016004;28;20179;-66
2022/05/06 11:36:22;;;;;;;23.47;17.03;;;;;;;;;;5033858;28;20233;-65
2022/05/06 11:38:48;;;;;;;22.73;16.60;;;;;;;;;;5033474;28;20175;-65
2022/05/06 11:41:15;;;;;;;23.40;17.20;;;;;;;;;;5015879;28;20183;-65
2022/05/06 11:43:42;;;;;;;21.53;14.77;;;;;;;;;;5033567;28;20187;-66
2022/05/06 11:48:59;;;;;;;19.10;13.70;;;;;;;;;;5033844;28;20229;-65
2022/05/06 11:51:30;;;;;;;18.20;14.23;;;;;;;;;;5033321;28;20179;-65
2022/05/06 11:53:57;;;;;;;21.87;14.10;;;;;;;;;;5033436;28;20207;-65
2022/05/06 11:56:27;;;;;;;19.27;12.63;;;;;;;;;;5033436;28;20175;-65
2022/05/06 11:58:54;;;;;;;19.70;15.90;;;;;;;;;;5033286;28;20225;-65
2022/05/06 12:01:30;;;;;;;20.43;15.03;;;;;;;;;;5033593;28;20178;-65
2022/05/06 12:04:03;;;;;;;24.53;14.43;;;;;;;;;;5033296;28;20178;-65
2022/05/06 12:06:32;;;;;;;17.60;13.37;;;;;;;;;;5033402;28;20197;-65
2022/05/06 12:09:28;;;;;;;17.07;13.07;;;;;;;;;;5015443;28;20666;-65
2022/05/06 12:12:04;;;;;;;18.50;14.50;;;;;;;;;;5017152;28;20222;-65
2022/05/06 12:14:30;;;;;;;20.27;14.23;;;;;;;;;;5015303;28;20182;-65
2022/05/06 12:16:57;;;;;;;20.17;14.00;;;;;;;;;;5032891;28;20277;-65
2022/05/06 12:19:33;;;;;;;19.60;14.17;;;;;;;;;;5033632;28;20647;-68
2022/05/06 12:22:04;;;;;;;17.53;13.40;;;;;;;;;;5032952;28;20190;-65
2022/05/06 12:24:39;;;;;;;18.80;13.13;;;;;;;;;;5015199;28;20635;-65
2022/05/06 12:27:07;;;;;;;16.63;12.47;;;;;;;;;;5032969;28;20195;-65
2022/05/06 12:29:37;;;;;;;17.00;12.73;;;;;;;;;;5033041;28;20199;-65
2022/05/06 12:32:03;;;;;;;18.73;13.17;;;;;;;;;;5032766;28;20213;-66
2022/05/06 12:34:31;;;;;;;16.33;12.80;;;;;;;;;;5032716;28;20171;-66
2022/05/06 12:37:13;;;;;;;16.33;13.20;;;;;;;;;;5032979;28;20249;-66
2022/05/06 12:39:45;;;;;;;13.10;10.37;;;;;;;;;;5015753;28;20286;-66
2022/05/06 12:42:15;;;;;;;13.03;11.30;;;;;;;;;;5036475;28;20210;-66
2022/05/06 12:44:41;;;;;;;18.27;12.60;;;;;;;;;;5036517;28;20186;-66
2022/05/06 12:47:13;;;;;;;17.50;13.30;;;;;;;;;;5036582;28;20218;-66
2022/05/06 12:49:39;;;;;;;22.17;14.10;;;;;;;;;;5018822;28;20647;-66
2022/05/06 12:52:06;;;;;;;21.33;13.67;;;;;;;;;;5018589;28;20206;-66
2022/05/06 12:54:32;;;;;;;16.97;12.57;;;;;;;;;;5037076;28;20190;-65
2022/05/06 12:56:59;;;;;;;19.63;15.23;;;;;;;;;;5036386;28;20217;-67
2022/05/06 12:59:26;;;;;;;20.40;16.27;;;;;;;;;;5018611;28;20279;-67
2022/05/06 13:01:52;;;;;;;24.07;15.53;;;;;;;;;;5036273;28;20180;-66
2022/05/06 13:04:18;;;;;;;18.90;14.83;;;;;;;;;;5036216;28;20179;-67
2022/05/06 13:06:45;;;;;;;21.13;15.23;;;;;;;;;;5036407;28;20203;-66
2022/05/06 13:09:11;;;;;;;18.40;13.77;;;;;;;;;;5036131;28;20740;-67
2022/05/06 13:11:37;;;;;;;20.60;14.53;;;;;;;;;;5036227;28;20194;-67
2022/05/06 13:14:03;;;;;;;16.67;13.57;;;;;;;;;;5036216;28;20225;-66
2022/05/06 13:16:29;;;;;;;21.90;14.13;;;;;;;;;;5036022;28;20179;-66
2022/05/06 13:18:55;;;;;;;16.43;12.60;;;;;;;;;;5018251;28;20186;-67
2022/05/06 13:21:21;;;;;;;16.20;13.27;;;;;;;;;;5018223;28;20189;-67
2022/05/06 13:23:47;;;;;;;17.23;13.97;;;;;;;;;;5036177;28;20266;-66
2022/05/06 13:26:13;;;;;;;16.37;13.13;;;;;;;;;;5035749;28;20191;-66
2022/05/06 13:28:39;;;;;;;21.10;14.10;;;;;;;;;;5035926;28;20209;-66
2022/05/06 13:31:05;;;;;;;19.03;13.60;;;;;;;;;;5017926;28;20623;-65
2022/05/06 13:33:31;;;;;;;18.33;12.43;;;;;;;;;;5035878;28;20694;-65
2022/05/06 13:36:00;;;;;;;15.27;11.63;;;;;;;;;;5035713;28;20171;-66
2022/05/06 13:38:26;;;;;;;14.07;12.00;;;;;;;;;;5017746;28;20195;-66
2022/05/06 13:40:53;;;;;;;13.30;11.40;;;;;;;;;;5035454;28;20175;-66
2022/05/06 13:43:18;;;;;;;16.27;11.70;;;;;;;;;;5035399;28;20213;-65
2022/05/06 13:45:44;;;;;;;14.73;11.60;;;;;;;;;;5035368;28;20274;-65
2022/05/06 13:48:14;;;;;;;15.83;11.80;;;;;;;;;;5035137;28;20210;-66
2022/05/06 13:50:40;;;;;;;15.47;11.53;;;;;;;;;;5034800;28;20228;-66
2022/05/06 13:53:06;;;;;;;15.87;11.27;;;;;;;;;;5035145;28;20214;-66
2022/05/06 14:01:03;;;;;;;17.17;11.63;;;;;;;;;;5035296;28;20187;-66
2022/05/06 14:03:29;;;;;;;14.70;10.90;;;;;;;;;;5035286;28;20179;-66
2022/05/06 14:05:55;;;;;;;13.77;10.83;;;;;;;;;;5035104;28;20670;-66
2022/05/06 14:08:21;;;;;;;14.83;11.40;;;;;;;;;;5035058;28;20207;-66
2022/05/06 14:10:47;;;;;;;15.87;11.87;;;;;;;;;;5017338;28;20206;-65
2022/05/06 14:13:13;;;;;;;13.73;11.00;;;;;;;;;;5034810;28;20280;-66
2022/05/06 14:15:39;;;;;;;13.07;10.63;;;;;;;;;;5034969;28;20571;-65
2022/05/06 14:18:05;;;;;;;12.70;10.00;;;;;;;;;;5034682;28;20663;-65
2022/05/06 14:20:31;;;;;;;12.97;10.67;;;;;;;;;;5017008;28;20588;-65
2022/05/06 14:22:57;;;;;;;11.70;9.27;;;;;;;;;;5034575;28;20180;-65
2022/05/06 14:25:23;;;;;;;13.13;10.03;;;;;;;;;;5016763;28;20559;-66
2022/05/06 14:27:49;;;;;;;13.53;9.23;;;;;;;;;;5035021;28;20612;-65
2022/05/06 14:30:16;;;;;;;12.50;9.60;;;;;;;;;;5034860;28;20648;-65
2022/05/06 14:32:42;;;;;;;9.93;7.97;;;;;;;;;;5016665;28;20260;-66
2022/05/06 14:35:17;;;;;;;10.77;9.00;;;;;;;;;;5034358;28;20171;-66
2022/05/06 14:37:49;;;;;;;12.33;9.40;;;;;;;;;;5034546;28;20191;-66
2022/05/06 14:40:17;;;;;;;11.50;9.63;;;;;;;;;;5034294;28;20175;-65
2022/05/06 14:42:43;;;;;;;12.40;9.20;;;;;;;;;;5034406;28;20066;-66
2022/05/06 14:45:09;;;;;;;;;;;;;;;;;;5034470;28;20387;-66
2022/05/06 14:47:34;;;;;;;;;;;;;;;;;;5016737;28;20879;-66
2022/05/06 14:50:00;;;;;;;;;;;;;;;;;;5034513;28;19912;-66
2022/05/06 14:52:26;;;;;;;;;;;;;;;;;;5034663;28;19909;-66
2022/05/06 14:54:52;;;;;;;10.77;8.20;;;;;;;;;;5034222;28;20372;-66
2022/05/06 14:57:18;;;;;;;9.13;7.97;;;;;;;;;;5016504;28;20174;-66
2022/05/06 14:59:44;;;;;;;10.33;8.20;;;;;;;;;;5034075;28;20176;-66
2022/05/06 15:02:10;;;;;;;11.40;8.53;;;;;;;;;;5033344;28;20172;-66
2022/05/06 15:04:36;;;;;;;9.27;7.93;;;;;;;;;;5033897;28;20206;-66
2022/05/06 15:07:03;;;;;;;8.20;7.37;;;;;;;;;;5034499;28;20199;-66
2022/05/06 15:09:28;;;;;;;10.47;8.10;;;;;;;;;;5033825;28;20171;-65
2022/05/06 15:11:54;;;;;;;12.03;8.83;;;;;;;;;;5034260;28;20329;-66
2022/05/06 15:14:23;;;;;;;12.53;8.70;;;;;;;;;;5016118;28;20229;-66
2022/05/06 15:16:49;;;;;;;13.13;8.13;;;;;;;;;;5033993;28;20187;-65